Terminal Aerodrome Forecast
Issued by NWS

Home | Current Version | Previous Version | Text Only | Print | Product List | Glossary On
Versions: 1 2 3 4 5 6 7 8 9 10 11 12 13 14 15 16 17 18 19 20 21 22 23 24
026
FTUS43 KEAX 161734 CCA
TAFMKC
TAF COR
KMKC 161734Z 1618/1718 13009KT 4SM BR VCSH OVC003
     FM162200 23008KT 4SM BR OVC004
      TEMPO 1622/1702 -SHRA OVC008
     FM170500 28007KT 1SM BR VCSH OVC003=

USA.gov is the U.S. government's official web portal to all federal, state and local government web resources and services.